sensor_id;sensor_type;location;lat;lon;timestamp;pressure;altitude;pressure_sealevel;temperature;humidity
34145;BME280;20422;53.014;8.886;2022-11-15T00:00:51;100989.44;;;7.60;100.00
34145;BME280;20422;53.014;8.886;2022-11-15T00:03:18;101010.31;;;7.69;100.00
34145;BME280;20422;53.014;8.886;2022-11-15T00:05:45;101001.00;;;7.77;100.00
34145;BME280;20422;53.014;8.886;2022-11-15T00:08:12;100997.22;;;7.64;100.00
34145;BME280;20422;53.014;8.886;2022-11-15T00:10:39;101000.13;;;7.77;100.00
34145;BME280;20422;53.014;8.886;2022-11-15T00:13:09;100988.50;;;7.78;100.00
34145;BME280;20422;53.014;8.886;2022-11-15T00:15:39;101004.09;;;7.68;100.00
34145;BME280;20422;53.014;8.886;2022-11-15T00:18:06;101009.13;;;7.57;100.00
34145;BME280;20422;53.014;8.886;2022-11-15T00:20:38;100979.47;;;7.46;100.00
34145;BME280;20422;53.014;8.886;2022-11-15T00:23:04;101005.28;;;7.63;100.00
34145;BME280;20422;53.014;8.886;2022-11-15T00:25:31;101013.19;;;7.47;100.00
34145;BME280;20422;53.014;8.886;2022-11-15T00:27:59;101018.00;;;7.57;100.00
34145;BME280;20422;53.014;8.886;2022-11-15T00:30:27;101010.22;;;7.70;100.00
34145;BME280;20422;53.014;8.886;2022-11-15T00:32:53;101010.63;;;7.80;100.00
34145;BME280;20422;53.014;8.886;2022-11-15T00:35:19;101011.09;;;7.88;100.00
34145;BME280;20422;53.014;8.886;2022-11-15T00:37:46;101011.34;;;7.83;100.00
34145;BME280;20422;53.014;8.886;2022-11-15T00:40:14;101019.50;;;7.80;100.00
34145;BME280;20422;53.014;8.886;2022-11-15T00:42:41;101020.91;;;7.87;100.00
34145;BME280;20422;53.014;8.886;2022-11-15T00:45:07;100997.03;;;7.67;100.00
34145;BME280;20422;53.014;8.886;2022-11-15T00:47:34;101000.81;;;7.63;100.00
34145;BME280;20422;53.014;8.886;2022-11-15T00:50:01;100991.34;;;7.57;100.00
34145;BME280;20422;53.014;8.886;2022-11-15T00:52:28;100999.25;;;7.59;100.00
34145;BME280;20422;53.014;8.886;2022-11-15T00:54:55;101000.81;;;7.46;100.00
34145;BME280;20422;53.014;8.886;2022-11-15T00:57:22;100990.81;;;7.32;100.00
34145;BME280;20422;53.014;8.886;2022-11-15T00:59:48;100989.88;;;7.33;100.00
34145;BME280;20422;53.014;8.886;2022-11-15T01:02:15;100988.53;;;7.24;100.00
34145;BME280;20422;53.014;8.886;2022-11-15T01:04:41;100980.47;;;7.26;100.00
34145;BME280;20422;53.014;8.886;2022-11-15T01:07:08;100976.50;;;7.16;100.00
34145;BME280;20422;53.014;8.886;2022-11-15T01:09:34;100995.38;;;7.30;100.00
34145;BME280;20422;53.014;8.886;2022-11-15T01:12:00;100981.84;;;7.16;100.00
34145;BME280;20422;53.014;8.886;2022-11-15T01:14:25;100975.09;;;7.09;100.00
34145;BME280;20422;53.014;8.886;2022-11-15T01:16:52;101004.09;;;7.15;100.00
34145;BME280;20422;53.014;8.886;2022-11-15T01:19:17;101001.81;;;7.07;100.00
34145;BME280;20422;53.014;8.886;2022-11-15T01:21:44;100982.81;;;6.96;100.00
34145;BME280;20422;53.014;8.886;2022-11-15T01:24:12;100999.50;;;7.00;100.00
34145;BME280;20422;53.014;8.886;2022-11-15T01:26:39;101009.19;;;7.02;100.00
34145;BME280;20422;53.014;8.886;2022-11-15T01:29:04;101001.25;;;7.01;100.00
34145;BME280;20422;53.014;8.886;2022-11-15T01:31:31;100998.28;;;7.07;100.00
34145;BME280;20422;53.014;8.886;2022-11-15T01:33:56;100990.78;;;7.15;100.00
34145;BME280;20422;53.014;8.886;2022-11-15T01:36:23;100981.63;;;7.20;100.00
34145;BME280;20422;53.014;8.886;2022-11-15T01:38:56;100989.09;;;7.31;100.00
34145;BME280;20422;53.014;8.886;2022-11-15T01:41:26;100980.16;;;7.32;100.00
34145;BME280;20422;53.014;8.886;2022-11-15T01:43:56;100973.00;;;7.33;100.00
34145;BME280;20422;53.014;8.886;2022-11-15T01:46:33;100980.47;;;7.26;100.00
34145;BME280;20422;53.014;8.886;2022-11-15T01:49:08;100978.50;;;7.30;100.00
34145;BME280;20422;53.014;8.886;2022-11-15T01:51:37;100964.81;;;7.37;100.00
34145;BME280;20422;53.014;8.886;2022-11-15T01:54:07;100966.28;;;7.43;100.00
34145;BME280;20422;53.014;8.886;2022-11-15T01:56:43;100971.38;;;7.47;100.00
34145;BME280;20422;53.014;8.886;2022-11-15T01:59:12;100932.16;;;7.32;100.00
34145;BME280;20422;53.014;8.886;2022-11-15T02:01:38;100952.97;;;7.43;100.00
34145;BME280;20422;53.014;8.886;2022-11-15T02:04:15;100958.84;;;7.49;100.00
34145;BME280;20422;53.014;8.886;2022-11-15T02:06:43;100915.88;;;7.21;100.00
34145;BME280;20422;53.014;8.886;2022-11-15T02:09:09;100948.88;;;7.36;100.00
34145;BME280;20422;53.014;8.886;2022-11-15T02:11:37;100921.31;;;7.18;100.00
34145;BME280;20422;53.014;8.886;2022-11-15T02:14:04;100920.63;;;7.14;100.00
34145;BME280;20422;53.014;8.886;2022-11-15T02:31:55;100932.34;;;7.46;100.00
34145;BME280;20422;53.014;8.886;2022-11-15T02:37:06;100933.19;;;7.64;100.00
34145;BME280;20422;53.014;8.886;2022-11-15T02:39:48;100926.59;;;7.71;100.00
34145;BME280;20422;53.014;8.886;2022-11-15T02:42:27;100919.69;;;7.67;100.00
34145;BME280;20422;53.014;8.886;2022-11-15T02:45:19;100920.25;;;7.74;100.00
34145;BME280;20422;53.014;8.886;2022-11-15T02:47:50;100913.97;;;7.75;100.00
34145;BME280;20422;53.014;8.886;2022-11-15T02:50:21;100910.56;;;7.88;100.00
34145;BME280;20422;53.014;8.886;2022-11-15T02:52:49;100898.88;;;7.91;100.00
34145;BME280;20422;53.014;8.886;2022-11-15T02:55:33;100917.97;;;8.16;100.00
34145;BME280;20422;53.014;8.886;2022-11-15T03:06:44;100916.81;;;8.38;100.00
34145;BME280;20422;53.014;8.886;2022-11-15T03:09:28;100910.63;;;8.37;100.00
34145;BME280;20422;53.014;8.886;2022-11-15T03:12:02;100901.47;;;8.41;100.00
34145;BME280;20422;53.014;8.886;2022-11-15T03:14:33;100913.47;;;8.50;100.00
34145;BME280;20422;53.014;8.886;2022-11-15T03:19:54;100909.41;;;8.59;100.00
34145;BME280;20422;53.014;8.886;2022-11-15T03:22:24;100903.22;;;8.58;100.00
34145;BME280;20422;53.014;8.886;2022-11-15T03:25:02;100898.31;;;8.51;100.00
34145;BME280;20422;53.014;8.886;2022-11-15T03:27:34;100895.66;;;8.51;100.00
34145;BME280;20422;53.014;8.886;2022-11-15T03:30:04;100889.72;;;8.45;100.00
34145;BME280;20422;53.014;8.886;2022-11-15T03:32:35;100894.44;;;8.40;100.00
34145;BME280;20422;53.014;8.886;2022-11-15T03:35:05;100860.38;;;8.28;100.00
34145;BME280;20422;53.014;8.886;2022-11-15T03:40:05;100886.50;;;8.70;100.00
34145;BME280;20422;53.014;8.886;2022-11-15T03:43:02;100894.34;;;8.89;100.00
34145;BME280;20422;53.014;8.886;2022-11-15T03:45:43;100887.84;;;8.93;100.00
34145;BME280;20422;53.014;8.886;2022-11-15T03:48:15;100884.41;;;8.91;100.00
34145;BME280;20422;53.014;8.886;2022-11-15T03:50:45;100876.41;;;8.91;100.00
34145;BME280;20422;53.014;8.886;2022-11-15T03:53:13;100879.16;;;8.90;100.00
34145;BME280;20422;53.014;8.886;2022-11-15T03:55:38;100889.94;;;8.88;100.00
34145;BME280;20422;53.014;8.886;2022-11-15T03:58:05;100882.59;;;8.92;100.00
34145;BME280;20422;53.014;8.886;2022-11-15T04:00:32;100888.91;;;8.91;100.00
34145;BME280;20422;53.014;8.886;2022-11-15T04:02:57;100865.81;;;8.74;100.00
34145;BME280;20422;53.014;8.886;2022-11-15T04:05:24;100884.31;;;8.93;100.00
34145;BME280;20422;53.014;8.886;2022-11-15T04:07:51;100891.22;;;8.97;100.00
34145;BME280;20422;53.014;8.886;2022-11-15T04:10:17;100882.00;;;8.87;100.00
34145;BME280;20422;53.014;8.886;2022-11-15T04:12:45;100882.59;;;8.92;100.00
34145;BME280;20422;53.014;8.886;2022-11-15T04:15:20;100884.31;;;8.93;100.00
34145;BME280;20422;53.014;8.886;2022-11-15T04:17:48;100881.56;;;8.94;100.00
34145;BME280;20422;53.014;8.886;2022-11-15T04:20:27;100882.41;;;8.95;100.00
34145;BME280;20422;53.014;8.886;2022-11-15T04:23:14;100884.13;;;8.96;100.00
34145;BME280;20422;53.014;8.886;2022-11-15T04:26:01;100884.03;;;8.97;100.00
34145;BME280;20422;53.014;8.886;2022-11-15T04:28:29;100872.69;;;8.94;100.00
34145;BME280;20422;53.014;8.886;2022-11-15T04:30:54;100871.63;;;8.96;100.00
34145;BME280;20422;53.014;8.886;2022-11-15T04:33:26;100883.63;;;9.05;100.00
34145;BME280;20422;53.014;8.886;2022-11-15T04:36:18;100882.19;;;8.99;100.00
34145;BME280;20422;53.014;8.886;2022-11-15T04:39:03;100896.03;;;9.06;100.00
34145;BME280;20422;53.014;8.886;2022-11-15T04:41:30;100889.91;;;9.04;100.00
34145;BME280;20422;53.014;8.886;2022-11-15T04:43:57;100895.34;;;9.02;100.00
34145;BME280;20422;53.014;8.886;2022-11-15T04:46:24;100896.72;;;9.09;100.00
34145;BME280;20422;53.014;8.886;2022-11-15T04:48:51;100890.75;;;9.20;100.00
34145;BME280;20422;53.014;8.886;2022-11-15T04:51:18;100883.06;;;9.14;100.00
34145;BME280;20422;53.014;8.886;2022-11-15T04:53:45;100893.59;;;9.17;100.00
34145;BME280;20422;53.014;8.886;2022-11-15T04:56:11;100883.53;;;9.06;100.00
34145;BME280;20422;53.014;8.886;2022-11-15T04:58:38;100872.94;;;9.05;100.00
34145;BME280;20422;53.014;8.886;2022-11-15T05:01:12;100888.00;;;9.06;100.00
34145;BME280;20422;53.014;8.886;2022-11-15T05:03:42;100884.63;;;9.18;100.00
34145;BME280;20422;53.014;8.886;2022-11-15T05:06:28;100873.69;;;9.07;100.00
34145;BME280;20422;53.014;8.886;2022-11-15T05:08:55;100881.78;;;9.21;100.00
34145;BME280;20422;53.014;8.886;2022-11-15T05:11:22;100866.88;;;9.17;100.00
34145;BME280;20422;53.014;8.886;2022-11-15T05:13:49;100895.53;;;9.29;100.00
34145;BME280;20422;53.014;8.886;2022-11-15T05:16:16;100872.44;;;9.28;100.00
34145;BME280;20422;53.014;8.886;2022-11-15T05:18:43;100870.81;;;9.26;100.00
34145;BME280;20422;53.014;8.886;2022-11-15T05:21:12;100880.34;;;9.30;100.00
34145;BME280;20422;53.014;8.886;2022-11-15T05:23:40;100883.97;;;9.29;100.00
34145;BME280;20422;53.014;8.886;2022-11-15T05:26:08;100892.09;;;9.27;100.00
34145;BME280;20422;53.014;8.886;2022-11-15T05:28:34;100874.75;;;9.34;100.00
34145;BME280;20422;53.014;8.886;2022-11-15T05:31:13;100882.06;;;9.31;100.00
34145;BME280;20422;53.014;8.886;2022-11-15T05:33:39;100877.69;;;9.30;100.00
34145;BME280;20422;53.014;8.886;2022-11-15T05:36:11;100862.97;;;9.23;100.00
34145;BME280;20422;53.014;8.886;2022-11-15T05:38:40;100863.81;;;9.23;100.00
34145;BME280;20422;53.014;8.886;2022-11-15T05:41:06;100864.19;;;9.17;100.00
34145;BME280;20422;53.014;8.886;2022-11-15T05:43:35;100868.31;;;9.23;100.00
34145;BME280;20422;53.014;8.886;2022-11-15T05:46:04;100856.09;;;9.19;100.00
34145;BME280;20422;53.014;8.886;2022-11-15T05:48:33;100858.00;;;9.31;100.00
34145;BME280;20422;53.014;8.886;2022-11-15T05:51:01;100877.06;;;9.41;100.00
34145;BME280;20422;53.014;8.886;2022-11-15T05:53:29;100874.09;;;9.45;100.00
34145;BME280;20422;53.014;8.886;2022-11-15T05:55:55;100867.69;;;9.48;100.00
34145;BME280;20422;53.014;8.886;2022-11-15T05:58:22;100849.72;;;9.35;100.00
34145;BME280;20422;53.014;8.886;2022-11-15T06:00:48;100867.78;;;9.46;100.00
34145;BME280;20422;53.014;8.886;2022-11-15T06:03:14;100853.94;;;9.39;100.00
34145;BME280;20422;53.014;8.886;2022-11-15T06:05:40;100871.94;;;9.52;100.00
34145;BME280;20422;53.014;8.886;2022-11-15T06:08:06;100867.16;;;9.57;100.00
34145;BME280;20422;53.014;8.886;2022-11-15T06:10:33;100866.00;;;9.61;100.00
34145;BME280;20422;53.014;8.886;2022-11-15T06:13:03;100878.22;;;9.65;100.00
34145;BME280;20422;53.014;8.886;2022-11-15T06:15:32;100864.56;;;9.55;100.00
34145;BME280;20422;53.014;8.886;2022-11-15T06:17:59;100870.09;;;9.66;100.00
34145;BME280;20422;53.014;8.886;2022-11-15T06:20:27;100887.72;;;9.71;100.00
34145;BME280;20422;53.014;8.886;2022-11-15T06:22:59;100869.44;;;9.63;100.00
34145;BME280;20422;53.014;8.886;2022-11-15T06:25:27;100869.84;;;9.71;100.00
34145;BME280;20422;53.014;8.886;2022-11-15T06:27:55;100883.25;;;9.71;100.00
34145;BME280;20422;53.014;8.886;2022-11-15T06:30:23;100888.09;;;9.79;100.00
34145;BME280;20422;53.014;8.886;2022-11-15T06:32:50;100862.78;;;9.70;100.00
34145;BME280;20422;53.014;8.886;2022-11-15T06:35:16;100847.19;;;9.62;100.00
34145;BME280;20422;53.014;8.886;2022-11-15T06:37:42;100881.16;;;9.90;100.00
34145;BME280;20422;53.014;8.886;2022-11-15T06:40:10;100873.78;;;9.94;100.00
34145;BME280;20422;53.014;8.886;2022-11-15T06:42:36;100891.16;;;10.01;100.00
34145;BME280;20422;53.014;8.886;2022-11-15T06:45:02;100884.50;;;10.08;100.00
34145;BME280;20422;53.014;8.886;2022-11-15T06:47:29;100890.91;;;10.06;100.00
34145;BME280;20422;53.014;8.886;2022-11-15T06:49:56;100885.25;;;9.96;100.00
34145;BME280;20422;53.014;8.886;2022-11-15T06:52:22;100861.53;;;9.76;100.00
34145;BME280;20422;53.014;8.886;2022-11-15T06:54:49;100893.75;;;10.03;100.00
34145;BME280;20422;53.014;8.886;2022-11-15T06:57:14;100894.03;;;9.98;100.00
34145;BME280;20422;53.014;8.886;2022-11-15T06:59:40;100873.78;;;9.94;100.00
34145;BME280;20422;53.014;8.886;2022-11-15T07:02:12;100890.50;;;9.97;100.00
34145;BME280;20422;53.014;8.886;2022-11-15T07:04:39;100884.78;;;9.89;100.00
34145;BME280;20422;53.014;8.886;2022-11-15T07:07:04;100891.16;;;9.87;100.00
34145;BME280;20422;53.014;8.886;2022-11-15T07:09:31;100898.06;;;9.91;100.00
34145;BME280;20422;53.014;8.886;2022-11-15T07:11:56;100896.06;;;9.94;100.00
34145;BME280;20422;53.014;8.886;2022-11-15T07:14:23;100900.34;;;9.97;100.00
34145;BME280;20422;53.014;8.886;2022-11-15T07:16:49;100900.16;;;10.00;100.00
34145;BME280;20422;53.014;8.886;2022-11-15T07:19:16;100892.88;;;10.02;100.00
34145;BME280;20422;53.014;8.886;2022-11-15T07:21:43;100886.97;;;9.97;100.00
34145;BME280;20422;53.014;8.886;2022-11-15T07:24:10;100887.06;;;10.10;100.00
34145;BME280;20422;53.014;8.886;2022-11-15T07:26:36;100891.66;;;10.08;100.00
34145;BME280;20422;53.014;8.886;2022-11-15T07:29:02;100886.13;;;10.11;100.00
34145;BME280;20422;53.014;8.886;2022-11-15T07:31:28;100896.75;;;10.26;100.00
34145;BME280;20422;53.014;8.886;2022-11-15T07:33:53;100895.50;;;10.32;100.00
34145;BME280;20422;53.014;8.886;2022-11-15T07:36:20;100859.91;;;10.16;100.00
34145;BME280;20422;53.014;8.886;2022-11-15T07:38:45;100885.84;;;10.29;100.00
34145;BME280;20422;53.014;8.886;2022-11-15T07:41:11;100892.72;;;10.48;100.00
34145;BME280;20422;53.014;8.886;2022-11-15T07:43:37;100885.94;;;10.42;100.00
34145;BME280;20422;53.014;8.886;2022-11-15T07:46:09;100868.22;;;10.40;100.00
34145;BME280;20422;53.014;8.886;2022-11-15T07:48:39;100869.94;;;10.41;100.00
34145;BME280;20422;53.014;8.886;2022-11-15T07:51:07;100893.81;;;10.58;100.00
34145;BME280;20422;53.014;8.886;2022-11-15T07:53:33;100887.22;;;10.64;100.00
34145;BME280;20422;53.014;8.886;2022-11-15T07:56:00;100859.19;;;10.55;100.00
34145;BME280;20422;53.014;8.886;2022-11-15T07:58:26;100866.00;;;10.61;100.00
34145;BME280;20422;53.014;8.886;2022-11-15T08:00:53;100876.53;;;10.76;100.00
34145;BME280;20422;53.014;8.886;2022-11-15T08:03:18;100878.00;;;10.95;100.00
34145;BME280;20422;53.014;8.886;2022-11-15T08:05:50;100884.72;;;11.02;100.00
34145;BME280;20422;53.014;8.886;2022-11-15T08:08:16;100896.78;;;11.22;100.00
34145;BME280;20422;53.014;8.886;2022-11-15T08:10:42;100890.94;;;11.42;100.00
34145;BME280;20422;53.014;8.886;2022-11-15T08:13:10;100877.88;;;11.50;100.00
34145;BME280;20422;53.014;8.886;2022-11-15T08:15:37;100849.19;;;11.38;100.00
34145;BME280;20422;53.014;8.886;2022-11-15T08:18:10;100885.28;;;11.72;100.00
34145;BME280;20422;53.014;8.886;2022-11-15T08:20:37;100880.91;;;11.84;100.00
34145;BME280;20422;53.014;8.886;2022-11-15T08:23:05;100889.09;;;11.95;100.00
34145;BME280;20422;53.014;8.886;2022-11-15T08:25:32;100884.34;;;11.98;100.00
34145;BME280;20422;53.014;8.886;2022-11-15T08:28:00;100884.34;;;11.98;100.00
34145;BME280;20422;53.014;8.886;2022-11-15T08:30:27;100873.94;;;11.94;100.00
34145;BME280;20422;53.014;8.886;2022-11-15T08:32:56;100888.13;;;11.96;100.00
34145;BME280;20422;53.014;8.886;2022-11-15T08:35:22;100871.13;;;11.83;100.00
34145;BME280;20422;53.014;8.886;2022-11-15T08:37:52;100898.44;;;11.89;100.00
34145;BME280;20422;53.014;8.886;2022-11-15T08:40:19;100890.03;;;11.81;100.00
34145;BME280;20422;53.014;8.886;2022-11-15T08:42:51;100896.28;;;11.94;100.00
34145;BME280;20422;53.014;8.886;2022-11-15T08:45:17;100892.19;;;12.01;100.00
34145;BME280;20422;53.014;8.886;2022-11-15T08:47:43;100875.00;;;11.91;100.00
34145;BME280;20422;53.014;8.886;2022-11-15T08:50:09;100903.25;;;12.09;100.00
34145;BME280;20422;53.014;8.886;2022-11-15T08:52:35;100863.41;;;12.03;100.00
34145;BME280;20422;53.014;8.886;2022-11-15T08:55:01;100871.88;;;11.97;100.00
34145;BME280;20422;53.014;8.886;2022-11-15T08:57:29;100864.16;;;11.93;100.00
34145;BME280;20422;53.014;8.886;2022-11-15T08:59:57;100874.91;;;11.93;100.00
34145;BME280;20422;53.014;8.886;2022-11-15T09:02:24;100883.06;;;12.04;100.00
34145;BME280;20422;53.014;8.886;2022-11-15T09:04:49;100872.84;;;11.96;100.00
34145;BME280;20422;53.014;8.886;2022-11-15T09:07:16;100891.13;;;12.04;100.00
34145;BME280;20422;53.014;8.886;2022-11-15T09:09:42;100894.44;;;11.95;100.00
34145;BME280;20422;53.014;8.886;2022-11-15T09:12:09;100888.56;;;11.90;100.00
34145;BME280;20422;53.014;8.886;2022-11-15T09:14:36;100900.91;;;11.92;100.00
34145;BME280;20422;53.014;8.886;2022-11-15T09:17:03;100882.63;;;11.85;100.00
34145;BME280;20422;53.014;8.886;2022-11-15T09:19:29;100886.94;;;11.87;100.00
34145;BME280;20422;53.014;8.886;2022-11-15T09:21:55;100869.31;;;11.83;100.00
34145;BME280;20422;53.014;8.886;2022-11-15T09:24:22;100888.13;;;11.96;100.00
34145;BME280;20422;53.014;8.886;2022-11-15T09:26:50;100875.25;;;11.88;100.00
34145;BME280;20422;53.014;8.886;2022-11-15T09:29:18;100898.53;;;12.00;100.00
34145;BME280;20422;53.014;8.886;2022-11-15T09:31:43;100878.97;;;11.98;100.00
34145;BME280;20422;53.014;8.886;2022-11-15T09:34:10;100829.66;;;11.61;100.00
34145;BME280;20422;53.014;8.886;2022-11-15T09:36:36;100848.22;;;11.77;100.00
34145;BME280;20422;53.014;8.886;2022-11-15T09:39:03;100883.50;;;11.98;100.00
34145;BME280;20422;53.014;8.886;2022-11-15T09:41:48;100881.66;;;11.98;100.00
34145;BME280;20422;53.014;8.886;2022-11-15T09:47:15;100886.38;;;12.20;100.00
34145;BME280;20422;53.014;8.886;2022-11-15T09:49:52;100878.22;;;12.22;100.00
34145;BME280;20422;53.014;8.886;2022-11-15T09:52:20;100876.34;;;12.35;100.00
34145;BME280;20422;53.014;8.886;2022-11-15T09:54:48;100872.91;;;12.46;100.00
34145;BME280;20422;53.014;8.886;2022-11-15T10:00:15;100887.34;;;12.92;100.00
34145;BME280;20422;53.014;8.886;2022-11-15T10:03:11;100856.13;;;13.02;100.00
34145;BME280;20422;53.014;8.886;2022-11-15T10:05:41;100856.28;;;13.36;100.00
34145;BME280;20422;53.014;8.886;2022-11-15T10:10:58;100877.09;;;13.45;100.00
34145;BME280;20422;53.014;8.886;2022-11-15T10:13:35;100866.31;;;13.45;100.00
34145;BME280;20422;53.014;8.886;2022-11-15T10:24:20;100860.38;;;13.64;100.00
34145;BME280;20422;53.014;8.886;2022-11-15T10:26:48;100825.59;;;13.50;100.00
34145;BME280;20422;53.014;8.886;2022-11-15T10:29:21;100844.97;;;13.66;100.00
34145;BME280;20422;53.014;8.886;2022-11-15T10:31:48;100845.69;;;13.57;100.00
34145;BME280;20422;53.014;8.886;2022-11-15T10:34:22;100847.75;;;13.53;100.00
34145;BME280;20422;53.014;8.886;2022-11-15T10:36:55;100839.31;;;13.58;100.00
34145;BME280;20422;53.014;8.886;2022-11-15T10:39:21;100839.66;;;13.42;100.00
34145;BME280;20422;53.014;8.886;2022-11-15T10:41:48;100833.19;;;13.56;100.00
34145;BME280;20422;53.014;8.886;2022-11-15T10:44:26;100826.63;;;13.71;100.00
34145;BME280;20422;53.014;8.886;2022-11-15T10:49:27;100823.44;;;13.77;100.00
34145;BME280;20422;53.014;8.886;2022-11-15T10:52:22;100813.03;;;13.95;100.00
34145;BME280;20422;53.014;8.886;2022-11-15T10:55:01;100810.81;;;14.00;100.00
34145;BME280;20422;53.014;8.886;2022-11-15T10:57:36;100793.91;;;13.98;100.00
34145;BME280;20422;53.014;8.886;2022-11-15T11:02:41;100790.75;;;13.93;100.00
34145;BME280;20422;53.014;8.886;2022-11-15T11:08:03;100789.38;;;14.10;100.00
34145;BME280;20422;53.014;8.886;2022-11-15T11:10:31;100783.75;;;14.24;100.00
34145;BME280;20422;53.014;8.886;2022-11-15T11:13:13;100786.78;;;14.42;100.00
34145;BME280;20422;53.014;8.886;2022-11-15T11:15:43;100771.28;;;14.66;100.00
34145;BME280;20422;53.014;8.886;2022-11-15T11:18:21;100775.13;;;14.52;99.25
34145;BME280;20422;53.014;8.886;2022-11-15T11:21:14;100768.84;;;14.95;98.71
34145;BME280;20422;53.014;8.886;2022-11-15T11:23:57;100766.28;;;14.94;97.50
34145;BME280;20422;53.014;8.886;2022-11-15T11:37:23;100772.06;;;15.10;95.02
34145;BME280;20422;53.014;8.886;2022-11-15T11:43:26;100758.03;;;15.37;95.29
34145;BME280;20422;53.014;8.886;2022-11-15T11:46:24;100757.84;;;15.50;94.43
34145;BME280;20422;53.014;8.886;2022-11-15T11:49:08;100731.63;;;15.40;93.74
34145;BME280;20422;53.014;8.886;2022-11-15T11:52:30;100743.72;;;15.67;93.80
34145;BME280;20422;53.014;8.886;2022-11-15T11:55:15;100741.75;;;15.69;92.91
34145;BME280;20422;53.014;8.886;2022-11-15T11:58:04;100751.75;;;15.57;92.79
34145;BME280;20422;53.014;8.886;2022-11-15T12:00:37;100738.47;;;15.45;92.40
34145;BME280;20422;53.014;8.886;2022-11-15T12:17:03;100744.53;;;15.37;92.89
34145;BME280;20422;53.014;8.886;2022-11-15T12:19:29;100728.53;;;15.24;92.54
34145;BME280;20422;53.014;8.886;2022-11-15T12:22:16;100733.88;;;15.15;92.94
34145;BME280;20422;53.014;8.886;2022-11-15T12:25:15;100732.50;;;15.20;92.36
34145;BME280;20422;53.014;8.886;2022-11-15T12:28:07;100724.75;;;15.27;93.10
34145;BME280;20422;53.014;8.886;2022-11-15T12:30:46;100710.09;;;15.29;92.34
34145;BME280;20422;53.014;8.886;2022-11-15T12:33:43;100711.34;;;15.25;92.18
34145;BME280;20422;53.014;8.886;2022-11-15T12:39:05;100696.88;;;15.57;91.99
34145;BME280;20422;53.014;8.886;2022-11-15T12:41:34;100697.66;;;15.68;91.59
34145;BME280;20422;53.014;8.886;2022-11-15T12:44:02;100693.13;;;15.69;91.53
34145;BME280;20422;53.014;8.886;2022-11-15T12:49:09;100694.69;;;15.71;90.96
34145;BME280;20422;53.014;8.886;2022-11-15T12:52:05;100685.78;;;15.81;90.87
34145;BME280;20422;53.014;8.886;2022-11-15T13:02:35;100690.13;;;15.72;90.63
34145;BME280;20422;53.014;8.886;2022-11-15T13:07:58;100665.06;;;16.00;91.18
34145;BME280;20422;53.014;8.886;2022-11-15T13:12:56;100658.38;;;16.14;87.86
34145;BME280;20422;53.014;8.886;2022-11-15T13:18:39;100652.09;;;16.14;86.26
34145;BME280;20422;53.014;8.886;2022-11-15T13:21:19;100639.44;;;16.14;85.03
34145;BME280;20422;53.014;8.886;2022-11-15T13:24:04;100644.28;;;16.01;84.10
34145;BME280;20422;53.014;8.886;2022-11-15T13:26:38;100657.94;;;15.99;83.68
34145;BME280;20422;53.014;8.886;2022-11-15T13:29:15;100655.06;;;15.82;84.25
34145;BME280;20422;53.014;8.886;2022-11-15T13:31:43;100630.94;;;15.59;84.41
34145;BME280;20422;53.014;8.886;2022-11-15T13:34:47;100668.72;;;15.80;84.65
34145;BME280;20422;53.014;8.886;2022-11-15T13:39:49;100652.59;;;15.79;83.48
34145;BME280;20422;53.014;8.886;2022-11-15T13:42:18;100664.59;;;15.95;84.03
34145;BME280;20422;53.014;8.886;2022-11-15T13:45:04;100664.16;;;15.50;82.39
34145;BME280;20422;53.014;8.886;2022-11-15T13:47:31;100653.50;;;15.58;80.97
34145;BME280;20422;53.014;8.886;2022-11-15T13:49:59;100652.28;;;15.32;81.01
34145;BME280;20422;53.014;8.886;2022-11-15T13:52:32;100658.84;;;15.39;80.79
34145;BME280;20422;53.014;8.886;2022-11-15T13:55:18;100654.00;;;15.33;80.97
34145;BME280;20422;53.014;8.886;2022-11-15T13:57:50;100672.47;;;15.37;80.09
34145;BME280;20422;53.014;8.886;2022-11-15T14:00:42;100656.13;;;15.29;81.54
34145;BME280;20422;53.014;8.886;2022-11-15T14:03:17;100663.38;;;15.38;80.45
34145;BME280;20422;53.014;8.886;2022-11-15T14:06:12;100651.72;;;15.38;80.51
34145;BME280;20422;53.014;8.886;2022-11-15T14:08:40;100638.41;;;15.46;79.95
34145;BME280;20422;53.014;8.886;2022-11-15T14:11:17;100652.78;;;15.47;79.92
34145;BME280;20422;53.014;8.886;2022-11-15T14:16:37;100652.91;;;15.45;79.95
34145;BME280;20422;53.014;8.886;2022-11-15T14:19:05;100641.75;;;15.29;80.00
34145;BME280;20422;53.014;8.886;2022-11-15T14:21:32;100644.31;;;15.30;79.95
34145;BME280;20422;53.014;8.886;2022-11-15T14:24:21;100652.28;;;15.32;80.66
34145;BME280;20422;53.014;8.886;2022-11-15T14:26:46;100642.41;;;15.52;79.90
34145;BME280;20422;53.014;8.886;2022-11-15T14:29:27;100634.31;;;15.52;80.15
34145;BME280;20422;53.014;8.886;2022-11-15T14:31:53;100633.47;;;15.51;79.69
34145;BME280;20422;53.014;8.886;2022-11-15T14:34:19;100633.03;;;15.56;80.02
34145;BME280;20422;53.014;8.886;2022-11-15T14:36:48;100631.69;;;15.40;81.08
34145;BME280;20422;53.014;8.886;2022-11-15T14:39:13;100638.34;;;15.27;81.63
34145;BME280;20422;53.014;8.886;2022-11-15T14:41:39;100634.56;;;15.08;82.90
34145;BME280;20422;53.014;8.886;2022-11-15T14:44:09;100624.69;;;14.98;83.90
34145;BME280;20422;53.014;8.886;2022-11-15T14:46:37;100627.81;;;14.93;84.54
34145;BME280;20422;53.014;8.886;2022-11-15T14:49:02;100598.31;;;14.80;84.96
34145;BME280;20422;53.014;8.886;2022-11-15T14:51:29;100622.72;;;15.00;85.05
34145;BME280;20422;53.014;8.886;2022-11-15T14:53:55;100628.81;;;15.02;84.90
34145;BME280;20422;53.014;8.886;2022-11-15T14:56:21;100625.81;;;14.95;84.80
34145;BME280;20422;53.014;8.886;2022-11-15T14:58:47;100619.78;;;14.82;85.43